Time;durP1;ratioP1;P1;durP2;ratioP2;P2;SDS_P1;SDS_P2;PMS_P1;PMS_P2;Temp;Humidity;BMP_temperature;BMP_pressure;BME280_temperature;BME280_humidity;BME280_pressure;Samples;Min_cycle;Max_cycle;Signal;HPM_P1;HPM_P2
2022/08/12 00:44:50;;;;;;;5.63;3.33;;;18.80;99.90;;;;;;5113157;28;20044;-81
2022/08/12 00:47:18;;;;;;;6.13;3.30;;;18.80;99.90;;;;;;5113203;28;20447;-79
2022/08/12 00:49:45;;;;;;;4.05;3.65;;;18.80;99.90;;;;;;5113158;28;20122;-81
2022/08/12 00:52:11;;;;;;;3.85;3.33;;;18.70;99.90;;;;;;5112094;28;20050;-81
2022/08/12 00:54:57;;;;;;;7.40;3.60;;;18.70;99.90;;;;;;5112759;28;20043;-81
2022/08/12 00:57:30;;;;;;;5.38;3.67;;;18.70;99.90;;;;;;5095055;28;20110;-81
2022/08/12 00:59:59;;;;;;;10.48;3.95;;;18.60;99.90;;;;;;5112716;28;20091;-81
2022/08/12 01:02:25;;;;;;;5.25;4.13;;;18.50;99.90;;;;;;5112995;28;20109;-80
2022/08/12 01:13:13;;;;;;;4.32;3.72;;;18.40;99.90;;;;;;5112768;28;20124;-81
2022/08/12 01:15:39;;;;;;;6.07;4.47;;;18.40;99.90;;;;;;5112584;28;20381;-81
2022/08/12 01:18:05;;;;;;;6.60;3.85;;;18.30;99.90;;;;;;5112929;28;20048;-84
2022/08/12 01:21:00;;;;;;;7.38;4.50;;;18.20;99.90;;;;;;5094894;28;20087;-81
2022/08/12 01:23:33;;;;;;;5.03;3.80;;;18.20;99.90;;;;;;4997383;28;20426;-81
2022/08/12 01:26:02;;;;;;;7.38;3.90;;;18.10;99.90;;;;;;5013351;28;20147;-81
2022/08/12 01:28:30;;;;;;;9.05;3.80;;;18.10;99.90;;;;;;5013514;28;20061;-85
2022/08/12 01:31:00;;;;;;;7.68;3.85;;;18.10;99.90;;;;;;5013537;28;20038;-82
2022/08/12 01:33:30;;;;;;;6.95;4.25;;;18.00;99.90;;;;;;5029847;28;20490;-81
2022/08/12 01:36:01;;;;;;;9.15;3.45;;;18.00;99.90;;;;;;5013662;28;20101;-81
2022/08/12 01:38:31;;;;;;;4.75;4.22;;;18.00;99.90;;;;;;5029830;28;20041;-81
2022/08/12 01:41:00;;;;;;;5.20;4.50;;;17.90;99.90;;;;;;5013552;28;20074;-81
2022/08/12 01:43:27;;;;;;;5.90;4.90;;;17.90;99.90;;;;;;5029867;28;20487;-80
2022/08/12 01:46:08;;;;;;;6.32;3.78;;;17.90;99.90;;;;;;5013451;28;20054;-80
2022/08/12 01:49:14;;;;;;;8.07;4.57;;;17.80;99.90;;;;;;5013479;28;20057;-81
2022/08/12 01:51:45;;;;;;;6.72;5.03;;;17.70;99.90;;;;;;5013409;28;20049;-81
2022/08/12 01:54:16;;;;;;;7.45;5.20;;;17.70;99.90;;;;;;5013285;28;20569;-80
2022/08/12 01:57:20;;;;;;;12.27;4.32;;;17.60;99.90;;;;;;5013611;28;20483;-81
2022/08/12 01:59:58;;;;;;;5.75;3.80;;;17.70;99.90;;;;;;4993086;28;20139;-81
2022/08/12 02:02:41;;;;;;;7.93;4.35;;;17.70;99.90;;;;;;5036523;28;20084;-81
2022/08/12 02:11:21;;;;;;;4.80;4.05;;;17.60;99.90;;;;;;5069449;28;20489;-83
2022/08/12 02:14:14;;;;;;;7.93;4.40;;;17.50;99.90;;;;;;5053111;28;20485;-81
2022/08/12 02:17:22;;;;;;;6.72;4.95;;;17.50;99.90;;;;;;5049316;28;20136;-81
2022/08/12 02:20:03;;;;;;;9.25;4.85;;;17.40;99.90;;;;;;5052953;28;20059;-84
2022/08/12 02:22:38;;;;;;;5.15;4.47;;;17.40;99.90;;;;;;5052568;28;20068;-81
2022/08/12 02:25:09;;;;;;;6.72;4.90;;;17.30;99.90;;;;;;5072549;28;20063;-82
2022/08/12 02:27:46;;;;;;;6.82;5.10;;;17.30;99.90;;;;;;5072935;28;20135;-81
2022/08/12 02:30:20;;;;;;;8.85;5.47;;;17.20;99.90;;;;;;5056142;28;20057;-81
2022/08/12 02:32:48;;;;;;;6.93;4.90;;;17.10;99.90;;;;;;5072826;28;20122;-82
2022/08/12 02:35:23;;;;;;;6.80;4.70;;;17.10;99.90;;;;;;5077092;28;20052;-82
2022/08/12 02:37:54;;;;;;;7.45;5.13;;;17.10;99.90;;;;;;5097535;28;20074;-80
2022/08/12 02:40:21;;;;;;;6.78;5.50;;;17.00;99.90;;;;;;5115704;28;20044;-83
2022/08/12 02:43:26;;;;;;;11.35;5.13;;;17.00;99.90;;;;;;5097519;28;20055;-81
2022/08/12 02:46:04;;;;;;;8.15;5.30;;;16.90;99.90;;;;;;5114241;28;20047;-81
2022/08/12 02:48:34;;;;;;;8.32;4.95;;;16.90;99.90;;;;;;5097450;28;20066;-81
2022/08/12 02:51:04;;;;;;;7.35;5.25;;;16.90;99.90;;;;;;5097247;28;20055;-83
2022/08/12 02:53:33;;;;;;;7.93;5.30;;;16.80;99.90;;;;;;5097332;28;20096;-81
2022/08/12 02:56:02;;;;;;;7.55;5.80;;;16.80;99.90;;;;;;5114327;28;20286;-84
2022/08/12 02:58:34;;;;;;;11.27;4.85;;;16.80;99.90;;;;;;5096741;28;20472;-81
2022/08/12 03:01:03;;;;;;;6.35;4.63;;;16.90;99.90;;;;;;5115293;28;20058;-80
2022/08/12 03:03:33;;;;;;;8.20;4.95;;;16.80;99.90;;;;;;5115017;28;20442;-81
2022/08/12 03:06:02;;;;;;;6.03;5.43;;;16.80;99.90;;;;;;5115207;28;20051;-81
2022/08/12 03:08:33;;;;;;;10.00;5.60;;;16.90;99.90;;;;;;5115005;28;20040;-81
2022/08/12 03:11:08;;;;;;;9.88;4.25;;;16.90;99.90;;;;;;5114728;28;20048;-83
2022/08/12 03:13:37;;;;;;;11.05;6.30;;;16.80;99.90;;;;;;5115032;28;20062;-81
2022/08/12 03:16:04;;;;;;;7.93;5.35;;;16.70;99.90;;;;;;5114864;28;20140;-81
2022/08/12 03:18:31;;;;;;;7.65;5.82;;;16.70;99.90;;;;;;5114838;28;20130;-81
2022/08/12 03:20:59;;;;;;;9.05;5.80;;;16.70;99.90;;;;;;5115223;28;20050;-80
2022/08/12 03:23:26;;;;;;;8.85;6.10;;;16.50;99.90;;;;;;5079776;28;20168;-81
2022/08/12 03:25:54;;;;;;;10.00;5.50;;;16.60;99.90;;;;;;5096637;28;20101;-81
2022/08/12 03:31:07;;;;;;;8.30;5.75;;;16.50;99.90;;;;;;5096264;28;20462;-82
2022/08/12 03:33:36;;;;;;;9.57;5.60;;;16.40;99.90;;;;;;5096625;28;20396;-81
2022/08/12 03:36:05;;;;;;;10.45;6.22;;;16.40;99.90;;;;;;5114291;28;20126;-81
2022/08/12 03:38:36;;;;;;;6.25;5.45;;;16.40;99.90;;;;;;5114137;28;20040;-81
2022/08/12 04:00:35;;;;;;;9.73;5.97;;;16.20;99.90;;;;;;5114008;28;20094;-82
2022/08/12 04:03:01;;;;;;;7.32;5.57;;;16.20;99.90;;;;;;5113889;28;20069;-81
2022/08/12 04:05:29;;;;;;;7.70;5.95;;;16.10;99.90;;;;;;5113649;28;20050;-81
2022/08/12 04:07:56;;;;;;;7.05;5.85;;;16.20;99.90;;;;;;5113356;28;20507;-82
2022/08/12 04:13:13;;;;;;;7.43;5.78;;;16.30;99.90;;;;;;5113855;28;20050;-80
2022/08/12 04:13:17;;;;;;;10.23;6.15;;;16.20;99.90;;;;;;5095746;28;20458;-81
2022/08/12 04:15:44;;;;;;;8.70;6.57;;;16.10;99.90;;;;;;5112779;28;20504;-80
2022/08/12 04:18:17;;;;;;;9.38;6.35;;;16.10;99.90;;;;;;5095479;28;20054;-81
2022/08/12 04:20:48;;;;;;;8.85;6.15;;;16.00;99.90;;;;;;5113778;28;20105;-81
2022/08/12 04:23:15;;;;;;;9.15;6.65;;;16.00;99.90;;;;;;5113591;28;20157;-81
2022/08/12 04:25:42;;;;;;;8.75;6.03;;;16.00;99.90;;;;;;5113353;28;20500;-81
2022/08/12 04:28:08;;;;;;;9.30;6.65;;;15.90;99.90;;;;;;5113671;28;20047;-80
2022/08/12 04:30:35;;;;;;;7.80;6.00;;;16.00;99.90;;;;;;5113259;28;20043;-81
2022/08/12 04:33:03;;;;;;;8.02;5.70;;;16.00;99.90;;;;;;5113229;28;20044;-81
2022/08/12 04:35:30;;;;;;;9.60;6.13;;;16.00;99.90;;;;;;5113429;28;20042;-81
2022/08/12 04:37:57;;;;;;;8.00;6.20;;;16.00;99.90;;;;;;5113414;28;20086;-81
2022/08/12 04:40:24;;;;;;;10.35;6.28;;;16.00;99.90;;;;;;5095451;28;20063;-81
2022/08/12 04:42:50;;;;;;;7.25;5.68;;;16.00;99.90;;;;;;5113199;28;20153;-82
2022/08/12 04:45:19;;;;;;;10.45;6.43;;;16.10;99.90;;;;;;5113483;28;20126;-81
2022/08/12 04:47:45;;;;;;;11.57;6.38;;;16.00;99.90;;;;;;5094459;28;20048;-80
2022/08/12 04:50:16;;;;;;;8.93;6.50;;;16.00;99.90;;;;;;5095201;28;20083;-81
2022/08/12 04:52:42;;;;;;;8.60;6.63;;;16.00;99.90;;;;;;5113241;28;20054;-83
2022/08/12 04:55:11;;;;;;;10.18;5.57;;;16.00;99.90;;;;;;5094891;28;20044;-81
2022/08/12 04:57:38;;;;;;;7.25;6.22;;;16.10;99.90;;;;;;5112980;28;20047;-81
2022/08/12 05:00:12;;;;;;;8.52;6.15;;;16.10;99.90;;;;;;5112255;28;20515;-81
2022/08/12 05:02:38;;;;;;;11.52;6.18;;;16.20;99.90;;;;;;5096326;28;20396;-81
2022/08/12 05:05:04;;;;;;;7.38;5.32;;;16.20;99.90;;;;;;5116364;28;20043;-81
2022/08/12 05:07:30;;;;;;;11.40;5.82;;;16.20;99.90;;;;;;5113016;28;20109;-81
2022/08/12 05:09:56;;;;;;;7.95;5.95;;;16.30;99.90;;;;;;5077670;28;20528;-81
2022/08/12 05:12:22;;;;;;;7.35;6.25;;;16.30;99.90;;;;;;5129259;28;20047;-80
2022/08/12 05:14:49;;;;;;;8.60;5.90;;;16.40;99.90;;;;;;5112686;28;20039;-80
2022/08/12 05:17:15;;;;;;;10.43;6.35;;;16.40;99.90;;;;;;5112579;28;20081;-81
2022/08/12 05:19:41;;;;;;;11.60;5.10;;;16.50;99.90;;;;;;5113009;28;20079;-81
2022/08/12 05:22:08;;;;;;;7.03;5.10;;;16.60;99.90;;;;;;5112848;28;20126;-81
2022/08/12 05:24:33;;;;;;;7.40;4.22;;;16.70;99.90;;;;;;5094763;28;20077;-81
2022/08/12 05:26:59;;;;;;;7.72;5.10;;;16.80;99.90;;;;;;5094853;28;20046;-81
2022/08/12 05:29:28;;;;;;;8.05;5.03;;;16.90;99.90;;;;;;5112720;28;20043;-86
2022/08/12 05:31:55;;;;;;;8.63;5.05;;;16.90;99.90;;;;;;5094370;28;20083;-81
2022/08/12 05:34:20;;;;;;;7.50;4.80;;;17.00;99.90;;;;;;5094801;28;20408;-80
2022/08/12 05:36:46;;;;;;;9.23;4.63;;;17.10;99.90;;;;;;5112397;28;20048;-81
2022/08/12 05:39:12;;;;;;;10.73;5.00;;;17.20;99.90;;;;;;5112630;28;20127;-81
2022/08/12 05:41:38;;;;;;;6.63;5.20;;;17.30;99.90;;;;;;5094395;28;20066;-81
2022/08/12 05:44:08;;;;;;;7.15;4.28;;;17.40;99.90;;;;;;5094654;28;20078;-81
2022/08/12 05:46:35;;;;;;;6.97;4.88;;;17.50;99.90;;;;;;5112295;28;20470;-80
2022/08/12 05:49:03;;;;;;;9.52;4.72;;;17.50;99.90;;;;;;5112665;28;20039;-80
2022/08/12 05:51:34;;;;;;;11.43;4.60;;;17.60;99.90;;;;;;5112413;28;20044;-81
2022/08/12 05:54:00;;;;;;;10.82;5.00;;;17.70;99.90;;;;;;5077765;28;20389;-79
2022/08/12 05:56:30;;;;;;;5.55;4.78;;;17.80;99.90;;;;;;5094626;28;20050;-81
2022/08/12 05:58:57;;;;;;;9.13;4.85;;;17.80;99.90;;;;;;5077851;28;20104;-82
2022/08/12 06:01:25;;;;;;;9.30;5.28;;;18.00;99.90;;;;;;5098352;28;20390;-81
2022/08/12 06:03:52;;;;;;;7.10;5.05;;;18.10;99.90;;;;;;5116289;28;20065;-80
2022/08/12 06:06:18;;;;;;;5.57;4.55;;;18.20;99.90;;;;;;5116303;28;20050;-81
2022/08/12 06:08:47;;;;;;;10.10;4.88;;;18.30;99.90;;;;;;5097901;28;20051;-81
2022/08/12 06:11:15;;;;;;;9.98;4.75;;;18.40;99.90;;;;;;5097749;28;20051;-81
2022/08/12 06:13:42;;;;;;;7.82;4.25;;;18.50;99.90;;;;;;5115975;28;20150;-81
2022/08/12 06:16:09;;;;;;;7.18;4.53;;;18.60;99.90;;;;;;5097426;28;20051;-82
2022/08/12 06:18:38;;;;;;;9.02;4.32;;;18.70;99.90;;;;;;5098253;28;20052;-80
2022/08/12 06:21:06;;;;;;;7.25;4.43;;;18.80;99.90;;;;;;5115994;28;20058;-81
2022/08/12 06:23:32;;;;;;;12.50;3.80;;;18.90;99.90;;;;;;5116112;28;20047;-81
2022/08/12 06:25:58;;;;;;;6.80;4.20;;;19.00;99.90;;;;;;5097942;28;20093;-81
2022/08/12 06:28:24;;;;;;;7.80;4.57;;;19.10;99.90;;;;;;5097858;28;20130;-85
2022/08/12 06:30:51;;;;;;;4.55;3.60;;;19.20;99.90;;;;;;5080470;28;20051;-81
2022/08/12 06:33:17;;;;;;;7.60;4.60;;;19.20;99.90;;;;;;5097610;28;20051;-81
2022/08/12 06:35:43;;;;;;;8.25;4.70;;;19.40;99.90;;;;;;5097829;28;20051;-81
2022/08/12 06:38:17;;;;;;;8.82;4.43;;;19.40;99.90;;;;;;5115796;28;20047;-79
2022/08/12 06:43:28;;;;;;;7.88;4.07;;;19.70;99.90;;;;;;5115340;28;20416;-80
2022/08/12 06:45:56;;;;;;;6.00;4.05;;;19.80;99.90;;;;;;5097991;28;20055;-80
2022/08/12 06:48:26;;;;;;;8.35;4.07;;;19.90;99.90;;;;;;5115534;28;20051;-81
2022/08/12 06:50:53;;;;;;;9.40;4.07;;;20.00;99.90;;;;;;5115449;28;20035;-81
2022/08/12 06:53:20;;;;;;;7.25;4.30;;;20.10;99.90;;;;;;5115306;28;20492;-81
2022/08/12 06:55:45;;;;;;;7.90;3.97;;;20.30;99.90;;;;;;5115188;28;20070;-82
2022/08/12 06:58:13;;;;;;;7.38;3.67;;;20.30;99.90;;;;;;5115427;28;20040;-82
2022/08/12 07:00:39;;;;;;;11.90;3.70;;;20.50;99.90;;;;;;5115211;28;20522;-80
2022/08/12 07:03:05;;;;;;;7.88;3.83;;;20.60;99.90;;;;;;5115299;28;20101;-80
2022/08/12 07:05:31;;;;;;;6.30;4.05;;;20.70;99.90;;;;;;5114894;28;20496;-81
2022/08/12 07:08:00;;;;;;;7.43;3.85;;;20.90;99.90;;;;;;5114896;28;20043;-80
2022/08/12 07:10:26;;;;;;;7.15;3.90;;;21.00;99.90;;;;;;5114237;28;20043;-81
2022/08/12 07:12:55;;;;;;;12.15;3.67;;;21.20;99.90;;;;;;5096430;28;20052;-82
2022/08/12 07:15:23;;;;;;;9.88;3.65;;;21.30;99.90;;;;;;5097203;28;20423;-81
2022/08/12 07:17:52;;;;;;;8.70;3.63;;;21.40;99.90;;;;;;5097184;28;20117;-81
2022/08/12 07:20:18;;;;;;;8.27;3.47;;;21.60;99.90;;;;;;5114787;28;20048;-80
2022/08/12 07:22:43;;;;;;;11.95;4.25;;;21.70;99.90;;;;;;5096473;28;20035;-80
2022/08/12 07:27:54;;;;;;;4.88;3.15;;;21.90;99.90;;;;;;5114771;28;20051;-80
2022/08/12 07:30:20;;;;;;;10.38;3.50;;;22.10;99.90;;;;;;5096465;28;20048;-81
2022/08/12 07:32:48;;;;;;;5.57;3.33;;;22.20;99.90;;;;;;5096903;28;20403;-81
2022/08/12 07:35:16;;;;;;;7.38;3.00;;;22.30;99.90;;;;;;5114820;28;20178;-81
2022/08/12 07:37:43;;;;;;;8.30;3.30;;;22.40;99.90;;;;;;5114502;28;20090;-82
2022/08/12 07:40:10;;;;;;;4.57;3.33;;;22.60;99.90;;;;;;5097777;28;20457;-80
2022/08/12 07:42:37;;;;;;;5.65;3.20;;;22.80;99.90;;;;;;5116047;28;20043;-83
2022/08/12 07:45:05;;;;;;;6.18;3.38;;;23.00;99.90;;;;;;5115505;28;20039;-80
2022/08/12 07:47:36;;;;;;;7.78;2.97;;;23.20;99.90;;;;;;5097795;28;20058;-81
2022/08/12 07:50:08;;;;;;;4.93;3.17;;;23.40;99.90;;;;;;5114373;28;20046;-82
2022/08/12 07:52:38;;;;;;;7.13;2.95;;;23.70;99.90;;;;;;5114230;28;20047;-82
2022/08/12 07:55:04;;;;;;;12.32;2.70;;;24.00;99.90;;;;;;5114714;28;20040;-80
2022/08/12 07:57:33;;;;;;;7.05;3.15;;;24.50;99.90;;;;;;5114439;28;20035;-80
2022/08/12 08:00:04;;;;;;;8.02;2.88;;;25.20;95.20;;;;;;5113909;28;20047;-82
2022/08/12 08:02:35;;;;;;;14.27;2.90;;;25.50;93.10;;;;;;5095595;28;20051;-81
2022/08/12 08:05:00;;;;;;;5.18;2.20;;;25.80;89.90;;;;;;5114053;28;20074;-80
2022/08/12 08:07:28;;;;;;;7.63;2.25;;;26.20;83.90;;;;;;5095387;28;20496;-82
2022/08/12 08:09:56;;;;;;;5.32;2.30;;;26.60;79.70;;;;;;5096252;28;20083;-83
2022/08/12 08:15:10;;;;;;;4.47;2.30;;;27.50;72.80;;;;;;5113767;28;20209;-81
2022/08/12 08:17:37;;;;;;;8.13;2.55;;;28.00;69.10;;;;;;5113573;28;20044;-81
2022/08/12 08:20:09;;;;;;;6.43;2.22;;;28.60;65.00;;;;;;5113989;28;20057;-84
2022/08/12 08:22:37;;;;;;;11.32;2.45;;;29.30;62.90;;;;;;5095103;28;20131;-82
2022/08/12 08:25:05;;;;;;;9.20;2.40;;;30.00;60.00;;;;;;5113631;28;20050;-81
2022/08/12 08:27:46;;;;;;;6.93;2.35;;;30.50;57.90;;;;;;5113556;28;20054;-81
2022/08/12 08:30:13;;;;;;;3.60;2.22;;;31.10;57.40;;;;;;5094196;28;20048;-82
2022/08/12 08:32:39;;;;;;;2.50;2.15;;;31.60;55.10;;;;;;5113836;28;20040;-82
2022/08/12 08:35:09;;;;;;;7.93;2.38;;;32.00;54.30;;;;;;5095537;28;20063;-82
2022/08/12 08:37:35;;;;;;;8.20;2.30;;;32.50;53.30;;;;;;5113471;28;20050;-81
2022/08/12 08:42:35;;;;;;;7.53;2.45;;;32.80;52.00;;;;;;5095252;28;20066;-82
2022/08/12 08:42:49;;;;;;;7.38;2.30;;;33.30;51.10;;;;;;5095321;28;20121;-81
2022/08/12 08:45:16;;;;;;;6.15;2.35;;;33.70;49.20;;;;;;5095347;28;20087;-83
2022/08/12 08:47:45;;;;;;;5.68;1.98;;;33.80;48.20;;;;;;5113413;28;20063;-82
2022/08/12 08:50:13;;;;;;;5.28;2.20;;;34.10;47.60;;;;;;5095440;28;20049;-83
2022/08/12 08:52:40;;;;;;;6.05;1.90;;;34.40;47.50;;;;;;5095476;28;20304;-85
2022/08/12 08:55:07;;;;;;;4.18;1.92;;;34.70;47.10;;;;;;5113108;28;20487;-83
2022/08/12 08:57:32;;;;;;;3.58;2.30;;;35.10;46.20;;;;;;5112928;28;20082;-79
2022/08/12 08:59:59;;;;;;;4.30;1.98;;;35.30;45.50;;;;;;5094607;28;20936;-83
2022/08/12 09:02:24;;;;;;;4.53;2.10;;;35.60;45.20;;;;;;5078083;28;20087;-84
2022/08/12 09:04:50;;;;;;;4.88;2.15;;;35.90;45.10;;;;;;5095126;28;20090;-85
2022/08/12 09:07:17;;;;;;;5.25;2.00;;;36.30;44.40;;;;;;5112297;28;20047;-82
2022/08/12 09:09:42;;;;;;;6.63;2.35;;;36.50;43.70;;;;;;5112819;28;20047;-83
2022/08/12 09:14:53;;;;;;;2.85;2.08;;;37.00;43.60;;;;;;5095907;28;20143;-82
2022/08/12 09:17:21;;;;;;;7.18;2.08;;;37.50;43.10;;;;;;5113053;28;20416;-82
2022/08/12 09:19:50;;;;;;;5.32;2.40;;;37.80;41.50;;;;;;5094836;28;20463;-82
2022/08/12 09:22:15;;;;;;;4.45;2.17;;;37.90;40.20;;;;;;5112838;28;20055;-81
2022/08/12 09:24:41;;;;;;;4.28;2.20;;;38.00;40.70;;;;;;5112824;28;20047;-83
2022/08/12 09:27:07;;;;;;;6.55;2.50;;;38.30;40.20;;;;;;5112565;28;20492;-82
2022/08/12 09:29:33;;;;;;;4.35;2.35;;;38.30;39.20;;;;;;5094725;28;20446;-81
2022/08/12 09:32:00;;;;;;;2.38;2.05;;;38.40;38.80;;;;;;5095229;28;20048;-83
2022/08/12 09:34:28;;;;;;;3.60;2.17;;;38.60;38.20;;;;;;5117094;28;20381;-83
2022/08/12 09:36:55;;;;;;;5.43;2.15;;;38.80;38.30;;;;;;5098934;28;20511;-83
2022/08/12 09:39:20;;;;;;;3.63;2.05;;;39.10;38.10;;;;;;5116651;28;20044;-84
2022/08/12 09:45:19;;;;;;;7.05;2.22;;;39.10;37.50;;;;;;5116347;28;20039;-83
2022/08/12 09:47:16;;;;;;;2.72;2.20;;;39.30;36.50;;;;;;5098620;28;20047;-83
2022/08/12 09:49:41;;;;;;;2.80;2.10;;;39.50;36.10;;;;;;5116825;28;20044;-83
2022/08/12 09:52:07;;;;;;;6.47;2.30;;;39.80;36.60;;;;;;5098880;28;20148;-82
2022/08/12 09:54:32;;;;;;;7.10;2.08;;;40.00;35.90;;;;;;5116661;28;20047;-82
2022/08/12 09:56:59;;;;;;;4.47;2.75;;;40.30;35.10;;;;;;5116559;28;20047;-82
2022/08/12 09:59:25;;;;;;;3.13;2.05;;;40.50;35.60;;;;;;5098355;28;20412;-81
2022/08/12 10:01:52;;;;;;;5.10;2.10;;;40.80;34.70;;;;;;5116935;28;20122;-84
2022/08/12 10:04:17;;;;;;;5.80;1.80;;;40.90;34.30;;;;;;5116708;28;20043;-81
2022/08/12 10:06:43;;;;;;;8.13;2.10;;;40.90;33.60;;;;;;5116411;28;20094;-81
2022/08/12 10:09:10;;;;;;;3.72;2.00;;;41.00;33.00;;;;;;5115956;28;20047;-81
2022/08/12 10:14:21;;;;;;;5.20;2.28;;;41.30;34.30;;;;;;5116297;28;20132;-82
2022/08/12 10:16:47;;;;;;;2.70;2.00;;;41.20;33.60;;;;;;5099089;28;20043;-82
2022/08/12 10:19:15;;;;;;;4.35;2.20;;;41.10;33.30;;;;;;5098628;28;20040;-83
2022/08/12 10:21:41;;;;;;;3.05;1.88;;;41.20;33.60;;;;;;5082472;28;20058;-82
2022/08/12 10:24:20;;;;;;;5.00;2.10;;;41.30;34.10;;;;;;5098571;28;20044;-82
2022/08/12 10:29:41;;;;;;;6.45;2.25;;;41.80;33.80;;;;;;5116194;28;20077;-82
2022/08/12 10:32:14;;;;;;;9.40;2.00;;;41.90;31.90;;;;;;5097551;28;20054;-84
2022/08/12 10:34:40;;;;;;;5.13;1.90;;;41.90;31.40;;;;;;5115800;28;20126;-83
2022/08/12 10:37:06;;;;;;;4.10;2.20;;;42.10;31.90;;;;;;5115800;28;20078;-82
2022/08/12 10:39:36;;;;;;;5.70;1.90;;;42.30;32.30;;;;;;5115694;28;20093;-84
2022/08/12 10:44:50;;;;;;;3.28;2.30;;;42.70;30.80;;;;;;5096353;28;20143;-83
2022/08/12 10:47:16;;;;;;;4.10;2.00;;;42.80;30.60;;;;;;5097226;28;20085;-82
2022/08/12 10:49:45;;;;;;;4.88;2.15;;;42.80;30.50;;;;;;5115520;28;20093;-82
2022/08/12 10:52:11;;;;;;;4.43;2.08;;;42.90;30.40;;;;;;5115495;28;20397;-81
2022/08/12 10:54:38;;;;;;;2.78;1.98;;;42.80;31.10;;;;;;5115254;28;20052;-83
2022/08/12 10:57:04;;;;;;;4.95;1.75;;;42.90;30.90;;;;;;5115262;28;20051;-82
2022/08/12 10:59:30;;;;;;;5.55;1.95;;;43.00;30.80;;;;;;5096869;28;20087;-80
2022/08/12 11:01:57;;;;;;;3.10;1.83;;;43.00;30.60;;;;;;5097569;28;20171;-81
2022/08/12 11:04:29;;;;;;;5.25;1.90;;;43.00;31.00;;;;;;5115130;28;20496;-83
2022/08/12 11:06:56;;;;;;;5.35;1.90;;;42.90;30.50;;;;;;5097062;28;20578;-82
2022/08/12 11:09:30;;;;;;;6.93;1.75;;;42.80;30.40;;;;;;5115294;28;20055;-81
2022/08/12 11:11:58;;;;;;;4.90;1.70;;;42.90;30.40;;;;;;5114894;28;20036;-82
2022/08/12 11:14:28;;;;;;;5.57;1.70;;;42.90;29.90;;;;;;5115422;28;20086;-82
2022/08/12 11:16:56;;;;;;;3.53;1.42;;;42.90;30.00;;;;;;5115040;28;20331;-83
2022/08/12 11:19:25;;;;;;;2.70;1.60;;;42.90;30.00;;;;;;5105055;27;20117;-87
2022/08/12 11:21:52;;;;;;;1.85;1.58;;;43.00;30.00;;;;;;5117202;27;20047;-83
2022/08/12 11:24:18;;;;;;;4.72;2.10;;;43.20;30.00;;;;;;5116614;27;20192;-82
2022/08/12 11:26:44;;;;;;;3.45;1.70;;;43.10;29.50;;;;;;5116472;27;20055;-81
2022/08/12 11:29:09;;;;;;;8.52;1.90;;;43.00;29.80;;;;;;5134986;27;20369;-81
2022/08/12 11:31:35;;;;;;;7.78;2.22;;;42.90;29.90;;;;;;5116766;27;20384;-81
2022/08/12 11:34:01;;;;;;;4.97;1.73;;;43.10;30.10;;;;;;5135168;27;20051;-82
2022/08/12 11:36:26;;;;;;;4.43;2.20;;;43.10;29.80;;;;;;5135066;27;20049;-81
2022/08/12 11:38:53;;;;;;;9.00;2.08;;;43.10;29.60;;;;;;5134840;27;20039;-81
2022/08/12 11:41:19;;;;;;;4.68;1.85;;;42.80;29.50;;;;;;5134716;27;20041;-83
2022/08/12 11:43:45;;;;;;;5.32;1.98;;;42.50;30.00;;;;;;5115995;27;20055;-82
2022/08/12 11:46:11;;;;;;;3.40;1.65;;;42.50;29.90;;;;;;5135129;27;20395;-83
2022/08/12 11:48:38;;;;;;;4.55;1.80;;;42.50;30.40;;;;;;5116572;27;20465;-82
2022/08/12 11:51:06;;;;;;;2.13;1.92;;;42.70;30.40;;;;;;5134606;27;20050;-81
2022/08/12 11:53:32;;;;;;;4.63;2.08;;;42.70;30.00;;;;;;5116288;27;20124;-85
2022/08/12 11:55:58;;;;;;;4.93;2.15;;;42.60;30.80;;;;;;5103382;28;20063;-82
2022/08/12 11:58:23;;;;;;;4.30;1.90;;;42.50;30.50;;;;;;5114371;28;20100;-83
2022/08/12 12:00:49;;;;;;;5.32;2.03;;;42.30;30.50;;;;;;5110639;27;20373;-82
2022/08/12 12:03:15;;;;;;;6.90;2.17;;;42.50;31.60;;;;;;5134189;27;20047;-83
2022/08/12 12:05:41;;;;;;;6.15;1.75;;;42.40;30.90;;;;;;5116155;27;20104;-82
2022/08/12 12:08:06;;;;;;;4.45;1.80;;;42.40;31.70;;;;;;5134208;27;20450;-81
2022/08/12 12:10:32;;;;;;;6.47;1.70;;;42.60;31.50;;;;;;5134084;27;20292;-83
2022/08/12 12:12:58;;;;;;;3.75;1.70;;;42.60;30.90;;;;;;5126929;27;20039;-82
2022/08/12 12:15:23;;;;;;;4.60;1.80;;;42.30;31.20;;;;;;5118530;27;20040;-81
2022/08/12 12:17:51;;;;;;;3.95;1.65;;;41.80;30.70;;;;;;5095459;28;20051;-82
2022/08/12 12:20:16;;;;;;;7.13;1.80;;;41.00;31.30;;;;;;5113753;28;20557;-82
2022/08/12 12:22:42;;;;;;;3.65;1.77;;;40.80;31.20;;;;;;5078928;28;20043;-81
2022/08/12 12:25:09;;;;;;;2.63;1.67;;;40.60;30.60;;;;;;5114235;28;20044;-83
2022/08/12 12:27:53;;;;;;;6.35;1.95;;;40.00;30.90;;;;;;5095873;28;20051;-80
2022/08/12 12:30:19;;;;;;;6.05;1.88;;;39.80;31.40;;;;;;5115371;28;20130;-81
2022/08/12 12:32:45;;;;;;;4.25;1.77;;;39.60;31.70;;;;;;5097163;28;20048;-81
2022/08/12 12:35:11;;;;;;;3.80;1.70;;;39.30;31.00;;;;;;5115046;28;20122;-81
2022/08/12 12:37:55;;;;;;;4.55;1.67;;;38.80;31.60;;;;;;5116797;28;20040;-80
2022/08/12 12:40:21;;;;;;;1.88;1.65;;;38.10;32.50;;;;;;5098396;28;20047;-82
2022/08/12 12:42:47;;;;;;;7.90;2.45;;;37.50;33.40;;;;;;5126376;27;20051;-82
2022/08/12 12:45:13;;;;;;;5.95;1.88;;;36.90;33.90;;;;;;5134670;27;20050;-82
2022/08/12 12:48:00;;;;;;;2.78;1.85;;;36.40;33.60;;;;;;5134334;27;20046;-81
2022/08/12 12:50:29;;;;;;;3.72;1.70;;;35.90;34.50;;;;;;5134865;27;20054;-81
2022/08/12 12:52:54;;;;;;;4.68;1.60;;;35.70;34.40;;;;;;5115453;27;20046;-81
2022/08/12 12:55:20;;;;;;;3.22;1.90;;;35.60;35.10;;;;;;5133740;27;20050;-81
2022/08/12 12:57:47;;;;;;;3.85;1.70;;;35.40;35.00;;;;;;5115357;27;20388;-81
2022/08/12 13:00:14;;;;;;;3.97;1.90;;;35.40;35.60;;;;;;5133290;27;20051;-81
2022/08/12 13:02:54;;;;;;;5.90;2.22;;;35.40;35.50;;;;;;5133448;27;20396;-82
2022/08/12 13:05:22;;;;;;;2.72;1.70;;;35.30;34.30;;;;;;5114961;27;20047;-85
2022/08/12 13:07:48;;;;;;;2.72;2.05;;;35.10;35.20;;;;;;5114638;28;20081;-82
2022/08/12 13:10:14;;;;;;;5.80;2.08;;;35.00;36.80;;;;;;5115052;28;20043;-81
2022/08/12 13:12:41;;;;;;;6.32;2.00;;;34.70;36.40;;;;;;5114752;28;20047;-82
2022/08/12 13:15:14;;;;;;;3.72;2.25;;;34.50;36.60;;;;;;5133144;27;20065;-80
2022/08/12 13:17:42;;;;;;;2.95;2.15;;;34.40;36.60;;;;;;5133163;28;20079;-81
2022/08/12 13:20:08;;;;;;;5.15;2.25;;;34.20;36.70;;;;;;5114048;28;20069;-81
2022/08/12 13:22:34;;;;;;;4.45;2.40;;;34.00;37.70;;;;;;5133472;28;20140;-82
2022/08/12 13:25:00;;;;;;;3.10;2.25;;;33.80;37.50;;;;;;5133104;28;20130;-81
2022/08/12 13:27:47;;;;;;;5.78;2.60;;;33.70;38.10;;;;;;5115303;28;20047;-81
2022/08/12 13:30:19;;;;;;;3.55;2.30;;;33.60;38.30;;;;;;5132158;28;20458;-81
2022/08/12 13:32:53;;;;;;;3.47;2.00;;;33.40;38.30;;;;;;5114620;28;20464;-80
2022/08/12 13:35:19;;;;;;;5.18;2.00;;;33.30;38.10;;;;;;5097651;28;20051;-80
2022/08/12 13:37:55;;;;;;;3.90;2.10;;;33.30;37.70;;;;;;5133154;28;20381;-81
2022/08/12 13:40:22;;;;;;;3.88;2.13;;;33.20;37.40;;;;;;5133137;28;20039;-81
2022/08/12 13:42:48;;;;;;;4.05;2.20;;;33.20;37.40;;;;;;5097376;28;20055;-80
2022/08/12 13:45:15;;;;;;;4.93;2.20;;;33.10;39.00;;;;;;5115014;28;20074;-82
2022/08/12 13:47:57;;;;;;;3.15;2.08;;;33.10;38.20;;;;;;5115833;28;20051;-81
2022/08/12 13:50:31;;;;;;;5.50;2.50;;;33.10;38.50;;;;;;5116558;28;20050;-81
2022/08/12 13:53:03;;;;;;;2.60;2.10;;;33.00;39.30;;;;;;5115341;28;20436;-81
2022/08/12 13:55:29;;;;;;;5.70;2.08;;;33.10;39.10;;;;;;5115231;28;20396;-81
2022/08/12 13:57:56;;;;;;;5.95;2.45;;;33.10;38.40;;;;;;5114991;28;20080;-81
2022/08/12 14:00:25;;;;;;;5.50;2.30;;;33.00;38.50;;;;;;5116140;28;20131;-81
2022/08/12 14:02:51;;;;;;;4.82;2.15;;;32.90;38.90;;;;;;5132566;28;20066;-80
2022/08/12 14:05:18;;;;;;;7.22;2.60;;;32.90;38.50;;;;;;5133187;28;20043;-81
2022/08/12 14:07:56;;;;;;;3.78;2.28;;;32.90;38.80;;;;;;5133356;28;20510;-82
2022/08/12 14:10:36;;;;;;;3.17;2.47;;;32.90;38.70;;;;;;5114123;28;20134;-81
2022/08/12 14:13:13;;;;;;;5.25;2.17;;;32.90;38.90;;;;;;5133292;28;20047;-80
2022/08/12 14:15:53;;;;;;;6.82;2.42;;;33.00;38.10;;;;;;5132895;28;20043;-80
2022/08/12 14:18:23;;;;;;;3.17;2.42;;;33.00;37.80;;;;;;5132848;27;20051;-81
2022/08/12 14:20:50;;;;;;;4.72;2.58;;;33.00;38.00;;;;;;5136084;27;20075;-82
2022/08/12 14:23:18;;;;;;;3.42;2.60;;;33.00;39.00;;;;;;5136244;27;20051;-81
2022/08/12 14:25:46;;;;;;;6.10;2.75;;;33.10;38.50;;;;;;5111556;28;20055;-80
2022/08/12 14:28:15;;;;;;;3.67;2.58;;;33.20;38.90;;;;;;5120421;27;20056;-82
2022/08/12 14:30:45;;;;;;;6.07;2.63;;;33.30;37.80;;;;;;5139403;27;20436;-81
2022/08/12 14:33:14;;;;;;;7.55;2.97;;;33.40;38.90;;;;;;5145426;27;20053;-82
2022/08/12 14:35:43;;;;;;;4.32;2.78;;;33.50;38.30;;;;;;5134191;27;20458;-81
2022/08/12 14:38:14;;;;;;;6.20;2.70;;;33.70;38.00;;;;;;5130681;27;20044;-81